Lewis, Indiana
Current Conditions -  °F | °C
As of 10:53 AM on Tuesday 21 Oct 2014 (Local Time) from KHUF Reporting Station
Few Clouds Few Clouds  
Wind Chill: 56°   Ceiling: Unl
Heat Index: 56°   Visibility: 10mi
Dew Point: 46°   Wind: 8mph
Humidity: 69%   Direction: 350°N
Pressure: 30.11"   Gusts: NA
Location:  39.26°N, 87.26°W
Report Text: KHUF 211453Z 35007KT 10SM FEW021 FEW047 13/08 A3011 RMK AO2 SLP195 T01330078 51016
Loading
Personal Weather Stations






























Interactive Weather Map
Tropical Storm Tracking
New forecast layout! Learn more

10-Day Weather Forecast

Advertisements
Track Severe Weather on mobile